createdAt,value
2016-10-01T00:00:17.284Z,737.52
2016-10-01T00:01:17.272Z,737.52
2016-10-01T00:02:17.268Z,737.47
2016-10-01T00:03:17.256Z,737.44
2016-10-01T00:04:17.245Z,737.44
2016-10-01T00:05:17.233Z,737.46
2016-10-01T00:06:17.222Z,737.41
2016-10-01T00:07:17.203Z,737.38
2016-10-01T00:08:17.199Z,737.38
2016-10-01T00:09:17.187Z,737.33
2016-10-01T00:10:17.169Z,737.35
2016-10-01T00:11:17.164Z,737.35
2016-10-01T00:12:17.146Z,737.35
2016-10-01T00:13:17.140Z,737.36
2016-10-01T00:14:17.123Z,737.32
2016-10-01T00:15:17.111Z,737.31
2016-10-01T00:16:17.105Z,737.27
2016-10-01T00:17:17.093Z,737.31
2016-10-01T00:18:17.085Z,737.3
2016-10-01T00:19:17.067Z,737.32
2016-10-01T00:20:17.050Z,737.27
2016-10-01T00:21:17.045Z,737.3
2016-10-01T00:22:17.033Z,737.33
2016-10-01T00:23:17.021Z,737.27
2016-10-01T00:24:17.003Z,737.29
2016-10-01T00:25:16.991Z,737.28
2016-10-01T00:26:16.979Z,737.27
2016-10-01T00:27:16.968Z,737.27
2016-10-01T00:28:16.964Z,737.2
2016-10-01T00:29:16.951Z,737.17
2016-10-01T00:30:16.939Z,737.2
2016-10-01T00:31:16.928Z,737.23
2016-10-01T00:32:16.932Z,737.2
2016-10-01T00:33:16.898Z,737.18
2016-10-01T00:34:16.886Z,737.19
2016-10-01T00:35:16.875Z,737.22
2016-10-01T00:36:16.870Z,737.17
2016-10-01T00:37:16.850Z,737.17
2016-10-01T00:38:16.846Z,737.16
2016-10-01T00:39:16.828Z,737.16
2016-10-01T00:40:16.816Z,737.16
2016-10-01T00:41:16.811Z,737.17
2016-10-01T00:42:16.801Z,737.15
2016-10-01T00:43:16.781Z,737.16
2016-10-01T00:44:16.770Z,737.16
2016-10-01T00:45:16.765Z,737.19
2016-10-01T00:46:16.747Z,737.15
2016-10-01T00:47:16.748Z,737.14
2016-10-01T00:48:16.722Z,737.14
2016-10-01T00:49:16.712Z,737.13
2016-10-01T00:50:16.707Z,737.11
2016-10-01T00:51:16.700Z,737.18
2016-10-01T00:52:16.682Z,737.17
2016-10-01T00:53:16.665Z,737.14
2016-10-01T00:54:16.651Z,737.11
2016-10-01T00:55:16.649Z,737.11
2016-10-01T00:56:16.636Z,737.07
2016-10-01T00:57:16.618Z,737.04
2016-10-01T00:58:16.612Z,737.05
2016-10-01T00:59:16.593Z,737.03
2016-10-01T01:00:16.588Z,737.02
2016-10-01T01:01:16.571Z,737.01
2016-10-01T01:02:16.566Z,736.96
2016-10-01T01:03:16.548Z,736.95
2016-10-01T01:04:16.535Z,736.95
2016-10-01T01:05:16.525Z,736.91
2016-10-01T01:06:16.520Z,736.88
2016-10-01T01:07:16.509Z,736.84
2016-10-01T01:08:16.497Z,736.88
2016-10-01T01:09:16.479Z,736.9
2016-10-01T01:10:16.466Z,736.86
2016-10-01T01:11:16.461Z,736.8
2016-10-01T01:12:16.450Z,736.81
2016-10-01T01:13:16.432Z,736.82
2016-10-01T01:14:16.426Z,736.83
2016-10-01T01:15:16.414Z,736.82
2016-10-01T01:16:16.404Z,736.81
2016-10-01T01:17:16.393Z,736.82
2016-10-01T01:18:16.380Z,736.8
2016-10-01T01:19:16.360Z,736.81
2016-10-01T01:20:16.349Z,736.77
2016-10-01T01:21:16.338Z,736.75
2016-10-01T01:22:16.383Z,736.78
2016-10-01T01:23:16.321Z,736.74
2016-10-01T01:24:16.303Z,736.77
2016-10-01T01:25:16.297Z,736.77
2016-10-01T01:26:16.279Z,736.8
2016-10-01T01:27:16.267Z,736.73
2016-10-01T01:28:16.256Z,736.71
2016-10-01T01:29:16.248Z,736.71
2016-10-01T01:30:16.237Z,736.7
2016-10-01T01:31:16.219Z,736.73
2016-10-01T01:32:16.213Z,736.72
2016-10-01T01:33:16.201Z,736.68
2016-10-01T01:34:16.190Z,736.71
2016-10-01T01:35:16.178Z,736.68
2016-10-01T01:36:16.159Z,736.72
2016-10-01T01:37:16.154Z,736.68
2016-10-01T01:38:16.135Z,736.66
2016-10-01T01:39:16.131Z,736.65
2016-10-01T01:40:16.120Z,736.65
2016-10-01T01:41:16.107Z,736.62
2016-10-01T01:42:16.091Z,736.61
2016-10-01T01:43:16.083Z,736.65
2016-10-01T01:44:16.072Z,736.55
2016-10-01T01:45:16.055Z,736.56
2016-10-01T01:46:16.042Z,736.5
2016-10-01T01:47:16.029Z,736.53
2016-10-01T01:48:16.026Z,736.49
2016-10-01T01:49:16.013Z,736.49
2016-10-01T01:50:15.995Z,736.56
2016-10-01T01:51:15.988Z,736.54
2016-10-01T01:52:15.977Z,736.5
2016-10-01T01:53:15.965Z,736.51
2016-10-01T01:54:15.945Z,736.54
2016-10-01T01:55:15.941Z,736.57
2016-10-01T01:56:15.923Z,736.56
2016-10-01T01:57:15.918Z,736.51
2016-10-01T01:58:15.905Z,736.52
2016-10-01T01:59:15.886Z,736.54
2016-10-01T02:00:15.881Z,736.54
2016-10-01T02:01:15.862Z,736.55
2016-10-01T02:02:15.858Z,736.58
2016-10-01T02:03:15.838Z,736.52
2016-10-01T02:04:15.828Z,736.54
2016-10-01T02:05:15.820Z,736.53
2016-10-01T02:06:15.809Z,736.51
2016-10-01T02:07:15.790Z,736.52
2016-10-01T02:08:15.784Z,736.53
2016-10-01T02:09:15.771Z,736.5
2016-10-01T02:10:15.753Z,736.48
2016-10-01T02:11:15.741Z,736.35
2016-10-01T02:12:15.734Z,736.55
2016-10-01T02:13:15.727Z,736.53
2016-10-01T02:14:15.710Z,736.52
2016-10-01T02:15:15.698Z,736.56
2016-10-01T02:16:15.678Z,736.52
2016-10-01T02:17:15.665Z,736.51
2016-10-01T02:18:15.661Z,736.46
2016-10-01T02:19:15.649Z,736.47
2016-10-01T02:20:15.630Z,736.49
2016-10-01T02:21:15.624Z,736.54
2016-10-01T02:22:15.605Z,736.52
2016-10-01T02:23:15.599Z,736.55
2016-10-01T02:24:15.581Z,736.44
2016-10-01T02:25:15.569Z,736.51
2016-10-01T02:26:15.565Z,736.59
2016-10-01T02:27:15.544Z,736.41
2016-10-01T02:28:15.533Z,736.43
2016-10-01T02:29:15.522Z,736.44
2016-10-01T02:30:15.517Z,736.42
2016-10-01T02:31:15.503Z,736.45
2016-10-01T02:32:15.492Z,736.47
2016-10-01T02:33:15.479Z,736.49
2016-10-01T02:34:15.474Z,736.44
2016-10-01T02:35:15.455Z,736.34
2016-10-01T02:36:15.436Z,736.42
2016-10-01T02:37:15.425Z,736.42
2016-10-01T02:38:15.411Z,736.4
2016-10-01T02:39:15.399Z,736.39
2016-10-01T02:40:15.387Z,736.37
2016-10-01T02:41:15.375Z,736.28
2016-10-01T02:42:15.369Z,736.28
2016-10-01T02:43:15.358Z,736.41
2016-10-01T02:44:15.345Z,736.34
2016-10-01T02:45:15.326Z,736.27
2016-10-01T02:46:15.334Z,736.32
2016-10-01T02:47:15.308Z,736.27
2016-10-01T02:48:15.296Z,736.31
2016-10-01T02:49:15.276Z,736.26
2016-10-01T02:50:15.270Z,736.24
2016-10-01T02:51:15.251Z,736.16
2016-10-01T02:52:15.246Z,736.18
2016-10-01T02:53:15.233Z,736.23
2016-10-01T02:54:15.213Z,736.27
2016-10-01T02:55:15.208Z,736.19
2016-10-01T02:56:15.187Z,736.14
2016-10-01T02:57:15.175Z,736.09
2016-10-01T02:58:15.163Z,736.11
2016-10-01T02:59:15.156Z,736.14
2016-10-01T03:00:15.136Z,736.14
2016-10-01T03:01:15.125Z,736.09
2016-10-01T03:02:15.111Z,736.12
2016-10-01T03:03:15.098Z,736.11
2016-10-01T03:04:15.086Z,736.08
2016-10-01T03:05:15.074Z,736.09
2016-10-01T03:06:15.075Z,736.12
2016-10-01T03:07:15.054Z,736.13
2016-10-01T03:08:15.035Z,736.11
2016-10-01T03:09:15.024Z,736.14
2016-10-01T03:10:15.011Z,736.2
2016-10-01T03:11:14.998Z,736.09
2016-10-01T03:12:14.993Z,736.1
2016-10-01T03:13:14.980Z,736.05
2016-10-01T03:14:14.973Z,736.1
2016-10-01T03:15:14.954Z,736.12
2016-10-01T03:16:14.937Z,736.09
2016-10-01T03:17:14.930Z,736.02
2016-10-01T03:18:14.920Z,736.05
2016-10-01T03:19:14.896Z,736.05
2016-10-01T03:20:14.886Z,736.02
2016-10-01T03:21:14.872Z,736.02
2016-10-01T03:22:14.860Z,736.01
2016-10-01T03:23:14.854Z,736.05
2016-10-01T03:24:14.842Z,736.11
2016-10-01T03:25:14.830Z,736.05
2016-10-01T03:26:14.810Z,736.11
2016-10-01T03:27:14.805Z,736.03
2016-10-01T03:28:14.786Z,736.05
2016-10-01T03:29:14.773Z,736.04
2016-10-01T03:30:14.761Z,736.07
2016-10-01T03:31:14.756Z,736.11
2016-10-01T03:32:14.743Z,736.07
2016-10-01T03:33:14.723Z,736.09
2016-10-01T03:34:14.711Z,736.13
2016-10-01T03:35:14.705Z,736.07
2016-10-01T03:36:14.694Z,736.07
2016-10-01T03:37:14.673Z,736.05
2016-10-01T03:38:14.662Z,736.1
2016-10-01T03:39:14.649Z,736.11
2016-10-01T03:40:14.643Z,736.13
2016-10-01T03:41:14.631Z,736.08
2016-10-01T03:42:14.613Z,736.07
2016-10-01T03:43:14.600Z,736.1
2016-10-01T03:44:14.588Z,736.07
2016-10-01T03:45:14.574Z,736.1
2016-10-01T03:46:14.570Z,736.13
2016-10-01T03:47:14.550Z,736.06
2016-10-01T03:48:14.545Z,736.11
2016-10-01T03:49:14.526Z,736.16
2016-10-01T03:50:14.513Z,736.1
2016-10-01T03:51:14.506Z,736.07
2016-10-01T03:52:14.495Z,736.06
2016-10-01T03:53:14.475Z,736.07
2016-10-01T03:54:14.470Z,736.08
2016-10-01T03:55:14.457Z,736.08
2016-10-01T03:56:14.445Z,736.12
2016-10-01T03:57:14.432Z,736.09
2016-10-01T03:58:14.413Z,736.09
2016-10-01T03:59:14.406Z,736.1
2016-10-01T04:00:14.394Z,736.12
2016-10-01T04:01:14.381Z,736.05
2016-10-01T04:02:14.362Z,736.12
2016-10-01T04:03:14.349Z,736.07
2016-10-01T04:04:14.337Z,736.06
2016-10-01T04:05:14.324Z,736.04
2016-10-01T04:06:14.311Z,736.01
2016-10-01T04:07:14.305Z,736.02
2016-10-01T04:08:14.287Z,736
2016-10-01T04:09:14.273Z,736.05
2016-10-01T04:10:14.260Z,736.05
2016-10-01T04:11:14.248Z,736
2016-10-01T04:12:14.235Z,736.02
2016-10-01T04:13:14.221Z,735.98
2016-10-01T04:14:14.215Z,735.98
2016-10-01T04:15:14.202Z,736.03
2016-10-01T04:16:14.182Z,735.98
2016-10-01T04:17:14.176Z,735.98
2016-10-01T04:18:14.156Z,736.05
2016-10-01T04:19:14.144Z,735.98
2016-10-01T04:20:14.131Z,736.03
2016-10-01T04:21:14.125Z,735.97
2016-10-01T04:22:14.105Z,735.95
2016-10-01T04:23:14.100Z,736
2016-10-01T04:24:14.081Z,735.97
2016-10-01T04:25:14.067Z,735.98
2016-10-01T04:26:14.062Z,735.97
2016-10-01T04:27:14.049Z,735.93
2016-10-01T04:28:14.036Z,735.97
2016-10-01T04:29:14.023Z,735.95
2016-10-01T04:30:14.010Z,735.97
2016-10-01T04:31:13.997Z,735.96
2016-10-01T04:32:13.978Z,735.92
2016-10-01T04:33:13.972Z,736
2016-10-01T04:34:13.958Z,735.96
2016-10-01T04:35:13.938Z,735.93
2016-10-01T04:36:13.932Z,735.96
2016-10-01T04:37:13.912Z,735.91
2016-10-01T04:38:13.907Z,735.87
2016-10-01T04:39:13.886Z,735.92
2016-10-01T04:40:13.873Z,735.91
2016-10-01T04:41:13.862Z,735.98
2016-10-01T04:42:13.854Z,735.95
2016-10-01T04:43:13.835Z,735.92
2016-10-01T04:44:13.829Z,735.89
2016-10-01T04:45:13.810Z,735.96
2016-10-01T04:46:13.803Z,735.82
2016-10-01T04:47:13.785Z,735.88
2016-10-01T04:48:13.778Z,735.85
2016-10-01T04:49:13.760Z,735.79
2016-10-01T04:50:13.746Z,735.85
2016-10-01T04:51:13.741Z,735.91
2016-10-01T04:52:13.722Z,735.88
2016-10-01T04:53:13.706Z,735.85
2016-10-01T04:54:13.695Z,735.86
2016-10-01T04:55:13.681Z,735.82
2016-10-01T04:56:13.671Z,735.78
2016-10-01T04:57:13.663Z,735.78
2016-10-01T04:58:13.651Z,735.86
2016-10-01T04:59:13.632Z,735.88
2016-10-01T05:00:13.619Z,735.85
2016-10-01T05:01:13.613Z,735.82
2016-10-01T05:02:13.600Z,735.8
2016-10-01T05:03:13.580Z,735.84
2016-10-01T05:04:13.568Z,735.88
2016-10-01T05:05:13.562Z,735.86
2016-10-01T05:06:13.549Z,735.88
2016-10-01T05:07:13.530Z,735.88
2016-10-01T05:08:13.522Z,735.68
2016-10-01T05:09:13.503Z,735.83
2016-10-01T05:10:13.492Z,735.83
2016-10-01T05:11:13.480Z,735.85
2016-10-01T05:12:13.473Z,735.84
2016-10-01T05:13:13.453Z,735.89
2016-10-01T05:14:13.448Z,735.82
2016-10-01T05:15:13.435Z,735.82
2016-10-01T05:16:13.423Z,735.83
2016-10-01T05:17:13.402Z,735.82
2016-10-01T05:18:13.397Z,735.87
2016-10-01T05:19:13.377Z,735.88
2016-10-01T05:20:13.364Z,735.77
2016-10-01T05:21:13.353Z,735.83
2016-10-01T05:22:13.345Z,735.87
2016-10-01T05:23:13.326Z,735.91
2016-10-01T05:24:13.320Z,735.89
2016-10-01T05:25:13.301Z,735.92
2016-10-01T05:26:13.287Z,735.95
2016-10-01T05:27:13.281Z,735.97
2016-10-01T05:28:13.270Z,735.9
2016-10-01T05:29:13.250Z,736.04
2016-10-01T05:30:13.245Z,735.88
2016-10-01T05:31:13.224Z,735.82
2016-10-01T05:32:13.224Z,735.9
2016-10-01T05:33:13.200Z,735.86
2016-10-01T05:34:13.187Z,735.91
2016-10-01T05:35:13.177Z,735.88
2016-10-01T05:36:13.171Z,735.88
2016-10-01T05:37:13.149Z,735.93
2016-10-01T05:38:13.145Z,735.85
2016-10-01T05:39:13.127Z,735.83
2016-10-01T05:40:13.114Z,735.83
2016-10-01T05:41:13.100Z,735.87
2016-10-01T05:42:13.096Z,735.87
2016-10-01T05:43:13.083Z,735.85
2016-10-01T05:44:13.063Z,735.75
2016-10-01T05:45:13.051Z,735.73
2016-10-01T05:46:13.045Z,735.73
2016-10-01T05:47:13.033Z,735.71
2016-10-01T05:48:13.020Z,735.73
2016-10-01T05:49:13.001Z,735.65
2016-10-01T05:50:12.989Z,735.56
2016-10-01T05:51:12.977Z,735.67
2016-10-01T05:52:12.961Z,735.69
2016-10-01T05:53:12.957Z,735.73
2016-10-01T05:54:12.937Z,735.76
2016-10-01T05:55:12.922Z,735.71
2016-10-01T05:56:12.912Z,735.76
2016-10-01T05:57:12.901Z,735.75
2016-10-01T05:58:12.893Z,735.73
2016-10-01T05:59:12.872Z,735.72
2016-10-01T06:00:12.867Z,735.73
2016-10-01T06:01:12.853Z,735.74
2016-10-01T06:02:12.842Z,735.84
2016-10-01T06:03:12.828Z,735.83
2016-10-01T06:04:12.810Z,735.88
2016-10-01T06:05:12.797Z,735.89
2016-10-01T06:06:12.784Z,735.87
2016-10-01T06:07:12.771Z,735.84
2016-10-01T06:08:12.759Z,735.92
2016-10-01T06:09:12.753Z,735.89
2016-10-01T06:10:12.733Z,735.92
2016-10-01T06:11:12.727Z,735.97
2016-10-01T06:12:12.715Z,735.95
2016-10-01T06:13:12.702Z,735.94
2016-10-01T06:14:12.689Z,735.9
2016-10-01T06:15:12.677Z,735.93
2016-10-01T06:16:12.659Z,735.9
2016-10-01T06:17:12.651Z,735.93
2016-10-01T06:18:12.640Z,735.94
2016-10-01T06:19:12.626Z,735.95
2016-10-01T06:20:12.616Z,736.01
2016-10-01T06:21:12.600Z,735.94
2016-10-01T06:22:12.590Z,735.96
2016-10-01T06:23:12.570Z,735.96
2016-10-01T06:24:12.566Z,735.98
2016-10-01T06:25:12.553Z,735.94
2016-10-01T06:26:12.542Z,735.98
2016-10-01T06:27:12.531Z,735.93
2016-10-01T06:28:12.511Z,735.94
2016-10-01T06:29:12.506Z,735.94
2016-10-01T06:30:12.493Z,735.97
2016-10-01T06:31:12.475Z,735.99
2016-10-01T06:32:12.461Z,735.92
2016-10-01T06:33:12.457Z,735.92
2016-10-01T06:34:12.447Z,735.91
2016-10-01T06:35:12.430Z,735.93
2016-10-01T06:36:12.421Z,735.98
2016-10-01T06:37:12.402Z,735.92
2016-10-01T06:38:12.390Z,735.92
2016-10-01T06:39:12.377Z,735.92
2016-10-01T06:40:12.373Z,735.98
2016-10-01T06:41:12.360Z,735.97
2016-10-01T06:42:12.342Z,735.99
2016-10-01T06:43:12.328Z,736.11
2016-10-01T06:44:12.322Z,736.01
2016-10-01T06:45:12.320Z,736.01
2016-10-01T06:46:12.299Z,735.86
2016-10-01T06:47:12.280Z,736.07
2016-10-01T06:48:12.269Z,736.07
2016-10-01T06:49:12.261Z,735.97
2016-10-01T06:50:12.242Z,736.06
2016-10-01T06:51:12.230Z,736
2016-10-01T06:52:12.226Z,735.94
2016-10-01T06:53:12.213Z,736.13
2016-10-01T06:54:12.199Z,736.06
2016-10-01T06:55:12.182Z,735.99
2016-10-01T06:56:12.169Z,735.99
2016-10-01T06:57:12.163Z,736.08
2016-10-01T06:58:12.159Z,735.98
2016-10-01T06:59:12.131Z,736.13
2016-10-01T07:00:12.126Z,736.06
2016-10-01T07:01:12.106Z,735.9
2016-10-01T07:02:12.094Z,736.04
2016-10-01T07:03:12.088Z,736.06
2016-10-01T07:04:12.077Z,735.96
2016-10-01T07:05:12.063Z,735.98
2016-10-01T07:06:12.052Z,736.03
2016-10-01T07:07:12.040Z,736.14
2016-10-01T07:08:12.027Z,736.08
2016-10-01T07:09:12.014Z,736.02
2016-10-01T07:10:12.011Z,736.05
2016-10-01T07:11:11.983Z,736.14
2016-10-01T07:12:11.971Z,736.1
2016-10-01T07:13:11.964Z,736
2016-10-01T07:14:11.953Z,735.97
2016-10-01T07:15:11.934Z,736.1
2016-10-01T07:16:11.921Z,736.2
2016-10-01T07:17:11.916Z,736.15
2016-10-01T07:18:11.898Z,735.9
2016-10-01T07:19:11.884Z,736.2
2016-10-01T07:20:11.879Z,736.16
2016-10-01T07:21:11.867Z,735.94
2016-10-01T07:22:11.848Z,735.91
2016-10-01T07:23:11.836Z,736
2016-10-01T07:24:11.831Z,736.06
2016-10-01T07:25:11.813Z,736.09
2016-10-01T07:26:11.807Z,736.03
2016-10-01T07:27:11.787Z,736.12
2016-10-01T07:28:11.783Z,736.07
2016-10-01T07:29:11.771Z,735.92
2016-10-01T07:30:11.759Z,736.18
2016-10-01T07:31:11.740Z,736.1
2016-10-01T07:32:11.728Z,736.12
2016-10-01T07:33:11.717Z,736.04
2016-10-01T07:34:11.724Z,736.19
2016-10-01T07:35:11.699Z,736.22
2016-10-01T07:36:11.679Z,736.15
2016-10-01T07:37:11.668Z,736.19
2016-10-01T07:38:11.664Z,736.18
2016-10-01T07:39:11.652Z,736.17
2016-10-01T07:40:11.633Z,736.31
2016-10-01T07:41:11.620Z,736.29
2016-10-01T07:42:11.615Z,736.08
2016-10-01T07:43:11.601Z,736.13
2016-10-01T07:44:11.586Z,736
2016-10-01T07:45:11.571Z,736.18
2016-10-01T07:46:11.561Z,736.2
2016-10-01T07:47:11.554Z,736.08
2016-10-01T07:48:11.536Z,736.12
2016-10-01T07:49:11.530Z,735.98
2016-10-01T07:50:11.519Z,736.03
2016-10-01T07:51:11.506Z,736.02
2016-10-01T07:52:11.498Z,736.13
2016-10-01T07:53:11.488Z,736.18
2016-10-01T07:54:11.464Z,736.16
2016-10-01T07:55:11.459Z,736.09
2016-10-01T07:56:11.440Z,735.98
2016-10-01T07:57:11.428Z,736.01
2016-10-01T07:58:11.417Z,736.07
2016-10-01T07:59:11.413Z,736.12
2016-10-01T08:00:11.392Z,736.14
2016-10-01T08:01:11.383Z,736.08
2016-10-01T08:02:11.371Z,736.06
2016-10-01T08:03:11.359Z,736.05
2016-10-01T08:04:11.353Z,736.09
2016-10-01T08:05:11.334Z,736.04
2016-10-01T08:06:11.331Z,736.12
2016-10-01T08:07:11.312Z,736.15
2016-10-01T08:08:11.308Z,736.2
2016-10-01T08:09:11.297Z,736.13
2016-10-01T08:10:11.279Z,736.17
2016-10-01T08:11:11.273Z,736.15
2016-10-01T08:12:11.263Z,736.12
2016-10-01T08:13:11.252Z,736.11
2016-10-01T08:14:11.233Z,736.3
2016-10-01T08:15:11.230Z,736.27
2016-10-01T08:16:11.220Z,736.29
2016-10-01T08:17:11.209Z,736.23
2016-10-01T08:18:11.198Z,736.21
2016-10-01T08:19:11.181Z,736.2
2016-10-01T08:20:11.177Z,736.11
2016-10-01T08:21:11.167Z,736.26
2016-10-01T08:22:11.150Z,736.36
2016-10-01T08:23:11.146Z,736.28
2016-10-01T08:24:11.133Z,736.29
2016-10-01T08:25:11.117Z,736.32
2016-10-01T08:26:11.108Z,736.28
2016-10-01T08:27:11.096Z,736.34
2016-10-01T08:28:11.086Z,736.26
2016-10-01T08:29:11.076Z,736.32
2016-10-01T08:30:11.065Z,736.35
2016-10-01T08:31:11.053Z,736.22
2016-10-01T08:32:11.047Z,736.27
2016-10-01T08:33:11.038Z,736.27
2016-10-01T08:34:11.029Z,736.27
2016-10-01T08:35:11.010Z,736.28
2016-10-01T08:36:11.005Z,736.27
2016-10-01T08:37:10.987Z,736.29
2016-10-01T08:38:10.983Z,736.3
2016-10-01T08:39:10.972Z,736.27
2016-10-01T08:40:10.961Z,736.28
2016-10-01T08:41:10.943Z,736.33
2016-10-01T08:42:10.932Z,736.31
2016-10-01T08:43:10.920Z,736.29
2016-10-01T08:44:10.910Z,736.3
2016-10-01T08:45:11.139Z,736.29
2016-10-01T08:46:10.894Z,736.37
2016-10-01T08:47:10.882Z,736.34
2016-10-01T08:48:10.871Z,736.3
2016-10-01T08:49:10.853Z,736.32
2016-10-01T08:50:10.842Z,736.32
2016-10-01T08:51:10.837Z,736.29
2016-10-01T08:52:10.820Z,736.32
2016-10-01T08:53:10.815Z,736.4
2016-10-01T08:54:10.802Z,736.35
2016-10-01T08:55:10.785Z,736.35
2016-10-01T08:56:10.780Z,736.24
2016-10-01T08:57:10.761Z,736.22
2016-10-01T08:58:10.749Z,736.21
2016-10-01T08:59:10.738Z,736.21
2016-10-01T09:00:10.725Z,736.15
2016-10-01T09:01:10.723Z,736.11
2016-10-01T09:02:10.710Z,736.14
2016-10-01T09:03:10.699Z,736.12
2016-10-01T09:04:10.681Z,736.12
2016-10-01T09:05:10.669Z,736.11
2016-10-01T09:06:10.665Z,736.13
2016-10-01T09:07:10.654Z,736.15
2016-10-01T09:08:10.643Z,736.15
2016-10-01T09:09:10.632Z,736.17
2016-10-01T09:10:10.613Z,736.15
2016-10-01T09:11:10.604Z,736.17
2016-10-01T09:12:10.599Z,736.18
2016-10-01T09:13:10.581Z,736.19
2016-10-01T09:14:10.581Z,736.15
2016-10-01T09:15:10.566Z,736.15
2016-10-01T09:16:10.548Z,736.16
2016-10-01T09:17:10.544Z,736.16
2016-10-01T09:18:10.533Z,736.15
2016-10-01T09:19:10.516Z,736.14
2016-10-01T09:20:10.505Z,736.18
2016-10-01T09:21:10.495Z,736.16
2016-10-01T09:22:10.486Z,736.18
2016-10-01T09:23:10.484Z,736.19
2016-10-01T09:24:10.467Z,736.24
2016-10-01T09:25:10.463Z,736.17
2016-10-01T09:26:10.447Z,736.21
2016-10-01T09:27:10.437Z,736.17
2016-10-01T09:28:10.434Z,736.21
2016-10-01T09:29:10.425Z,736.14
2016-10-01T09:30:10.409Z,736.18
2016-10-01T09:31:10.406Z,736.15
2016-10-01T09:32:10.397Z,736.15
2016-10-01T09:33:10.388Z,736.23
2016-10-01T09:34:10.372Z,736.26
2016-10-01T09:35:10.360Z,736.31
2016-10-01T09:36:10.353Z,736.33
2016-10-01T09:37:10.349Z,736.2
2016-10-01T09:38:10.340Z,736.22
2016-10-01T09:39:10.329Z,736.24
2016-10-01T09:40:10.320Z,736.22
2016-10-01T09:41:10.311Z,736.24
2016-10-01T09:42:10.293Z,736.2
2016-10-01T09:43:10.283Z,736.31
2016-10-01T09:44:10.281Z,736.28
2016-10-01T09:45:10.272Z,736.27
2016-10-01T09:46:10.260Z,736.26
2016-10-01T09:47:10.244Z,736.28
2016-10-01T09:48:10.236Z,736.24
2016-10-01T09:49:10.231Z,736.26
2016-10-01T09:50:10.222Z,736.24
2016-10-01T09:51:10.213Z,736.24
2016-10-01T09:52:10.204Z,736.21
2016-10-01T09:53:10.194Z,736.2
2016-10-01T09:54:10.185Z,736.16
2016-10-01T09:55:10.175Z,736.23
2016-10-01T09:56:10.159Z,736.3
2016-10-01T09:57:10.150Z,736.26
2016-10-01T09:58:10.149Z,736.22
2016-10-01T09:59:10.139Z,736.38
2016-10-01T10:00:10.124Z,736.37
2016-10-01T10:01:10.115Z,736.3
2016-10-01T10:02:10.106Z,736.31
2016-10-01T10:03:10.096Z,736.34
2016-10-01T10:04:10.093Z,736.33
2016-10-01T10:05:10.084Z,736.34
2016-10-01T10:06:10.068Z,736.24
2016-10-01T10:07:10.057Z,736.33
2016-10-01T10:08:10.048Z,736.39
2016-10-01T10:09:10.047Z,736.34
2016-10-01T10:10:10.030Z,736.3
2016-10-01T10:11:10.020Z,736.36
2016-10-01T10:12:10.013Z,736.31
2016-10-01T10:13:10.009Z,736.33
2016-10-01T10:14:10.000Z,736.32
2016-10-01T10:15:09.983Z,736.41
2016-10-01T10:16:09.976Z,736.46
2016-10-01T10:17:09.967Z,736.43
2016-10-01T10:18:09.962Z,736.44
2016-10-01T10:19:09.947Z,736.42
2016-10-01T10:20:09.938Z,736.43
2016-10-01T10:21:09.937Z,736.42
2016-10-01T10:22:09.926Z,736.41
2016-10-01T10:23:09.918Z,736.5
2016-10-01T10:24:09.901Z,736.48
2016-10-01T10:25:09.895Z,736.47
2016-10-01T10:26:09.883Z,736.46
2016-10-01T10:27:09.875Z,736.43
2016-10-01T10:28:09.874Z,736.6
2016-10-01T10:29:09.856Z,736.26
2016-10-01T10:30:09.854Z,736.23
2016-10-01T10:31:09.838Z,736.28
2016-10-01T10:32:09.836Z,736.26
2016-10-01T10:33:09.819Z,736.14
2016-10-01T10:34:09.815Z,736.25
2016-10-01T10:35:09.807Z,736.17
2016-10-01T10:36:09.797Z,736.12
2016-10-01T10:37:09.780Z,736.21
2016-10-01T10:38:09.772Z,736.17
2016-10-01T10:39:09.769Z,736.19
2016-10-01T10:40:09.759Z,736.16
2016-10-01T10:41:09.745Z,736.01
2016-10-01T10:42:09.733Z,735.83
2016-10-01T10:43:09.728Z,735.98
2016-10-01T10:44:09.717Z,735.98
2016-10-01T10:45:09.701Z,736.02
2016-10-01T10:46:09.692Z,736.11
2016-10-01T10:47:09.688Z,736.11
2016-10-01T10:48:09.669Z,735.93
2016-10-01T10:49:09.666Z,735.85
2016-10-01T10:50:09.656Z,736.04
2016-10-01T10:51:09.638Z,736.05
2016-10-01T10:52:09.629Z,736.08
2016-10-01T10:53:09.617Z,736.14
2016-10-01T10:54:09.614Z,735.98
2016-10-01T10:55:09.597Z,736.04
2016-10-01T10:56:09.593Z,736.06
2016-10-01T10:57:09.577Z,736.03
2016-10-01T10:58:09.573Z,735.96
2016-10-01T10:59:09.562Z,736.05
2016-10-01T11:00:09.551Z,736.16
2016-10-01T11:01:09.534Z,736.22
2016-10-01T11:02:09.529Z,736.18
2016-10-01T11:03:09.513Z,736.13
2016-10-01T11:04:09.502Z,736.27
2016-10-01T11:05:09.491Z,736.23
2016-10-01T11:06:09.487Z,736.21
2016-10-01T11:07:09.471Z,736.21
2016-10-01T11:08:09.461Z,736.18
2016-10-01T11:09:09.449Z,736.08
2016-10-01T11:10:09.438Z,736.01
2016-10-01T11:11:09.428Z,736.15
2016-10-01T11:12:09.419Z,736.07
2016-10-01T11:13:09.414Z,736.1
2016-10-01T11:14:09.404Z,736.19
2016-10-01T11:15:09.393Z,736.1
2016-10-01T11:16:09.383Z,736.09
2016-10-01T11:17:09.366Z,736
2016-10-01T11:18:09.362Z,735.97
2016-10-01T11:19:09.345Z,735.96
2016-10-01T11:20:09.342Z,735.87
2016-10-01T11:21:09.324Z,736.26
2016-10-01T11:22:09.320Z,736.05
2016-10-01T11:23:09.303Z,735.99
2016-10-01T11:24:09.291Z,736.05
2016-10-01T11:25:09.289Z,735.91
2016-10-01T11:26:09.279Z,735.7
2016-10-01T11:27:09.471Z,735.97
2016-10-01T11:28:09.251Z,736.06
2016-10-01T11:29:09.248Z,736.07
2016-10-01T11:30:09.250Z,736.02
2016-10-01T11:31:09.220Z,736.04
2016-10-01T11:32:09.211Z,735.95
2016-10-01T11:33:09.199Z,735.83
2016-10-01T11:34:09.190Z,735.64
2016-10-01T11:35:09.186Z,736.02
2016-10-01T11:36:09.176Z,735.99
2016-10-01T11:37:09.166Z,736.04
2016-10-01T11:38:09.148Z,735.85
2016-10-01T11:39:09.144Z,735.86
2016-10-01T11:40:09.127Z,735.93
2016-10-01T11:41:09.117Z,735.77
2016-10-01T11:42:09.113Z,735.8
2016-10-01T11:43:09.102Z,736.02
2016-10-01T11:44:09.092Z,735.84
2016-10-01T11:45:09.076Z,735.75
2016-10-01T11:46:09.070Z,735.84
2016-10-01T11:47:09.055Z,735.8
2016-10-01T11:48:09.051Z,735.83
2016-10-01T11:49:09.041Z,735.86
2016-10-01T11:50:09.029Z,735.94
2016-10-01T11:51:09.011Z,735.94
2016-10-01T11:52:09.002Z,735.7
2016-10-01T11:53:08.990Z,735.92
2016-10-01T11:54:08.980Z,735.88
2016-10-01T11:55:08.971Z,735.85
2016-10-01T11:56:08.967Z,735.72
2016-10-01T11:57:08.950Z,735.75
2016-10-01T11:58:08.946Z,735.71
2016-10-01T11:59:09.132Z,735.77
2016-10-01T12:00:08.925Z,735.69
2016-10-01T12:01:08.915Z,735.75
2016-10-01T12:02:08.904Z,735.76
2016-10-01T12:03:08.887Z,735.85
2016-10-01T12:04:08.876Z,735.72
2016-10-01T12:05:08.866Z,735.65
2016-10-01T12:06:08.863Z,735.56
2016-10-01T12:07:08.846Z,735.8
2016-10-01T12:08:08.834Z,735.74
2016-10-01T12:09:08.825Z,735.77
2016-10-01T12:10:08.814Z,735.71
2016-10-01T12:11:08.806Z,735.73
2016-10-01T12:12:08.801Z,735.76
2016-10-01T12:13:08.791Z,735.56
2016-10-01T12:14:08.775Z,735.57
2016-10-01T12:15:08.770Z,735.68
2016-10-01T12:16:08.760Z,735.71
2016-10-01T12:17:08.744Z,735.62
2016-10-01T12:18:08.741Z,735.65
2016-10-01T12:19:08.724Z,735.6
2016-10-01T12:20:08.720Z,735.75
2016-10-01T12:21:08.704Z,735.67
2016-10-01T12:22:08.706Z,735.75
2016-10-01T12:23:08.691Z,735.72
2016-10-01T12:24:08.675Z,735.74
2016-10-01T12:25:08.665Z,735.74
2016-10-01T12:26:08.655Z,735.69
2016-10-01T12:27:08.645Z,735.71
2016-10-01T12:28:08.636Z,735.68
2016-10-01T12:29:08.626Z,735.66
2016-10-01T12:30:08.623Z,735.53
2016-10-01T12:31:08.614Z,735.65